KCKF

Crisp County-Cordele Airport

Cordele, Georgia, USA
METAR KCKF 190455Z AUTO 00000KT 10SM CLR 24/22 A2995 RMK AO2 T02370217
Observed Flight Rules
Sep-19 @ 04:55 UTC (18 minutes ago) Visual Flight Rules
Visibility Clouds
10 miles
  • Clear skies
Temperatures Readings
Current 24°C / 75°F
Dewpoint 22°C / 72°F
Humidity 89%
Altimeter 29.95" Hg
Pressure 1014 hPa
Elevation 91
METAR KCKF 190455Z AUTO 00000KT 10SM CLR 24/22 A2995 RMK AO2 T02370217
Observed Flight Rules
Sep-19 @ 04:55 UTC
(18 minutes ago)
VFR
Clouds
  • Clear skies
Temperature Dewpoint
24°C / 75°F 22°C / 72°F
Humidity Altimeter Pressure
89% 29.95" Hg 1014 hPa